sensor_id;sensor_type;location;lat;lon;timestamp;P1;durP1;ratioP1;P2;durP2;ratioP2
12271;SDS011;6198;51.446;6.698;2023-02-15T00:00:22;39.80;;;29.43;;
12271;SDS011;6198;51.446;6.698;2023-02-15T00:02:48;41.63;;;29.40;;
12271;SDS011;6198;51.446;6.698;2023-02-15T00:05:14;40.20;;;30.43;;
12271;SDS011;6198;51.446;6.698;2023-02-15T00:07:40;41.77;;;28.73;;
12271;SDS011;6198;51.446;6.698;2023-02-15T00:10:06;39.87;;;28.53;;
12271;SDS011;6198;51.446;6.698;2023-02-15T00:12:32;38.53;;;28.13;;
12271;SDS011;6198;51.446;6.698;2023-02-15T00:14:58;40.80;;;28.90;;
12271;SDS011;6198;51.446;6.698;2023-02-15T00:17:26;46.63;;;30.17;;
12271;SDS011;6198;51.446;6.698;2023-02-15T00:19:53;39.67;;;29.33;;
12271;SDS011;6198;51.446;6.698;2023-02-15T00:22:19;43.13;;;28.17;;
12271;SDS011;6198;51.446;6.698;2023-02-15T00:24:45;42.47;;;29.57;;
12271;SDS011;6198;51.446;6.698;2023-02-15T00:27:11;45.00;;;30.77;;
12271;SDS011;6198;51.446;6.698;2023-02-15T00:29:37;48.77;;;30.70;;
12271;SDS011;6198;51.446;6.698;2023-02-15T00:32:03;42.43;;;29.60;;
12271;SDS011;6198;51.446;6.698;2023-02-15T00:34:29;41.70;;;29.83;;
12271;SDS011;6198;51.446;6.698;2023-02-15T00:36:55;43.60;;;29.63;;
12271;SDS011;6198;51.446;6.698;2023-02-15T00:39:21;42.43;;;28.93;;
12271;SDS011;6198;51.446;6.698;2023-02-15T00:41:48;42.17;;;29.23;;
12271;SDS011;6198;51.446;6.698;2023-02-15T00:44:14;48.80;;;29.83;;
12271;SDS011;6198;51.446;6.698;2023-02-15T00:46:40;44.37;;;30.23;;
12271;SDS011;6198;51.446;6.698;2023-02-15T00:49:06;44.00;;;31.00;;
12271;SDS011;6198;51.446;6.698;2023-02-15T00:51:32;42.73;;;30.70;;
12271;SDS011;6198;51.446;6.698;2023-02-15T00:53:58;47.30;;;30.97;;
12271;SDS011;6198;51.446;6.698;2023-02-15T00:56:24;43.13;;;29.37;;
12271;SDS011;6198;51.446;6.698;2023-02-15T00:58:50;44.20;;;30.10;;
12271;SDS011;6198;51.446;6.698;2023-02-15T01:01:17;45.47;;;30.20;;
12271;SDS011;6198;51.446;6.698;2023-02-15T01:03:44;45.27;;;29.90;;
12271;SDS011;6198;51.446;6.698;2023-02-15T01:06:11;43.73;;;31.70;;
12271;SDS011;6198;51.446;6.698;2023-02-15T01:08:37;45.97;;;30.90;;
12271;SDS011;6198;51.446;6.698;2023-02-15T01:11:07;44.53;;;31.10;;
12271;SDS011;6198;51.446;6.698;2023-02-15T01:13:34;42.77;;;31.27;;
12271;SDS011;6198;51.446;6.698;2023-02-15T01:16:00;49.73;;;32.70;;
12271;SDS011;6198;51.446;6.698;2023-02-15T01:18:26;42.80;;;30.87;;
12271;SDS011;6198;51.446;6.698;2023-02-15T01:20:52;49.87;;;32.07;;
12271;SDS011;6198;51.446;6.698;2023-02-15T01:23:18;46.63;;;32.07;;
12271;SDS011;6198;51.446;6.698;2023-02-15T01:25:44;46.00;;;31.37;;
12271;SDS011;6198;51.446;6.698;2023-02-15T01:28:10;50.90;;;32.90;;
12271;SDS011;6198;51.446;6.698;2023-02-15T01:30:36;46.83;;;30.97;;
12271;SDS011;6198;51.446;6.698;2023-02-15T01:33:02;47.20;;;31.47;;
12271;SDS011;6198;51.446;6.698;2023-02-15T01:35:28;48.87;;;33.90;;
12271;SDS011;6198;51.446;6.698;2023-02-15T01:37:54;49.40;;;32.90;;
12271;SDS011;6198;51.446;6.698;2023-02-15T01:40:20;49.60;;;32.47;;
12271;SDS011;6198;51.446;6.698;2023-02-15T01:42:49;49.80;;;33.67;;
12271;SDS011;6198;51.446;6.698;2023-02-15T01:45:20;47.77;;;30.97;;
12271;SDS011;6198;51.446;6.698;2023-02-15T01:47:48;52.63;;;33.67;;
12271;SDS011;6198;51.446;6.698;2023-02-15T01:50:20;49.50;;;32.27;;
12271;SDS011;6198;51.446;6.698;2023-02-15T01:53:05;50.73;;;33.57;;
12271;SDS011;6198;51.446;6.698;2023-02-15T01:55:33;54.83;;;36.40;;
12271;SDS011;6198;51.446;6.698;2023-02-15T01:58:01;54.23;;;35.10;;
12271;SDS011;6198;51.446;6.698;2023-02-15T02:00:27;51.50;;;33.20;;
12271;SDS011;6198;51.446;6.698;2023-02-15T02:02:54;55.30;;;36.10;;
12271;SDS011;6198;51.446;6.698;2023-02-15T02:05:21;51.83;;;34.97;;
12271;SDS011;6198;51.446;6.698;2023-02-15T02:07:47;57.30;;;37.03;;
12271;SDS011;6198;51.446;6.698;2023-02-15T02:10:17;53.93;;;34.60;;
12271;SDS011;6198;51.446;6.698;2023-02-15T02:12:43;57.27;;;35.47;;
12271;SDS011;6198;51.446;6.698;2023-02-15T02:15:10;55.97;;;34.73;;
12271;SDS011;6198;51.446;6.698;2023-02-15T02:17:42;60.50;;;35.17;;
12271;SDS011;6198;51.446;6.698;2023-02-15T02:38:11;57.83;;;37.70;;
12271;SDS011;6198;51.446;6.698;2023-02-15T02:43:28;56.70;;;36.90;;
12271;SDS011;6198;51.446;6.698;2023-02-15T02:45:57;68.83;;;41.37;;
12271;SDS011;6198;51.446;6.698;2023-02-15T02:48:25;65.53;;;39.43;;
12271;SDS011;6198;51.446;6.698;2023-02-15T02:50:51;63.00;;;40.60;;
12271;SDS011;6198;51.446;6.698;2023-02-15T02:53:17;67.13;;;41.53;;
12271;SDS011;6198;51.446;6.698;2023-02-15T02:55:45;83.70;;;51.13;;
12271;SDS011;6198;51.446;6.698;2023-02-15T03:01:00;131.70;;;73.37;;
12271;SDS011;6198;51.446;6.698;2023-02-15T03:03:34;142.10;;;74.53;;
12271;SDS011;6198;51.446;6.698;2023-02-15T03:06:03;148.43;;;80.37;;
12271;SDS011;6198;51.446;6.698;2023-02-15T03:08:32;188.73;;;96.43;;
12271;SDS011;6198;51.446;6.698;2023-02-15T03:11:00;165.80;;;85.10;;
12271;SDS011;6198;51.446;6.698;2023-02-15T03:13:27;140.70;;;74.67;;
12271;SDS011;6198;51.446;6.698;2023-02-15T03:15:53;106.27;;;56.50;;
12271;SDS011;6198;51.446;6.698;2023-02-15T03:18:40;99.77;;;51.67;;
12271;SDS011;6198;51.446;6.698;2023-02-15T03:21:08;95.10;;;53.97;;
12271;SDS011;6198;51.446;6.698;2023-02-15T03:23:46;119.23;;;57.07;;
12271;SDS011;6198;51.446;6.698;2023-02-15T03:26:13;75.23;;;44.40;;
12271;SDS011;6198;51.446;6.698;2023-02-15T03:28:43;79.83;;;47.00;;
12271;SDS011;6198;51.446;6.698;2023-02-15T03:31:11;68.40;;;40.87;;
12271;SDS011;6198;51.446;6.698;2023-02-15T03:33:39;61.53;;;39.03;;
12271;SDS011;6198;51.446;6.698;2023-02-15T03:36:55;67.93;;;41.37;;
12271;SDS011;6198;51.446;6.698;2023-02-15T03:41:49;61.17;;;38.00;;
12271;SDS011;6198;51.446;6.698;2023-02-15T03:47:13;63.23;;;40.13;;
12271;SDS011;6198;51.446;6.698;2023-02-15T03:49:48;65.70;;;40.80;;
12271;SDS011;6198;51.446;6.698;2023-02-15T03:52:16;67.73;;;40.67;;
12271;SDS011;6198;51.446;6.698;2023-02-15T03:54:43;63.40;;;40.30;;
12271;SDS011;6198;51.446;6.698;2023-02-15T03:57:13;92.57;;;50.20;;
12271;SDS011;6198;51.446;6.698;2023-02-15T03:59:59;116.13;;;58.67;;
12271;SDS011;6198;51.446;6.698;2023-02-15T04:02:47;130.03;;;63.07;;
12271;SDS011;6198;51.446;6.698;2023-02-15T04:05:15;148.03;;;71.27;;
12271;SDS011;6198;51.446;6.698;2023-02-15T04:07:41;96.40;;;54.23;;
12271;SDS011;6198;51.446;6.698;2023-02-15T04:10:07;174.43;;;85.97;;
12271;SDS011;6198;51.446;6.698;2023-02-15T04:12:52;102.80;;;55.17;;
12271;SDS011;6198;51.446;6.698;2023-02-15T04:15:18;112.83;;;60.00;;
12271;SDS011;6198;51.446;6.698;2023-02-15T04:18:03;96.50;;;52.00;;
12271;SDS011;6198;51.446;6.698;2023-02-15T04:20:29;74.03;;;44.60;;
12271;SDS011;6198;51.446;6.698;2023-02-15T04:23:13;70.83;;;40.87;;
12271;SDS011;6198;51.446;6.698;2023-02-15T04:25:58;69.37;;;41.83;;
12271;SDS011;6198;51.446;6.698;2023-02-15T04:28:24;69.87;;;40.60;;
12271;SDS011;6198;51.446;6.698;2023-02-15T04:30:50;70.93;;;41.47;;
12271;SDS011;6198;51.446;6.698;2023-02-15T04:33:16;63.90;;;39.37;;
12271;SDS011;6198;51.446;6.698;2023-02-15T04:35:43;70.83;;;40.80;;
12271;SDS011;6198;51.446;6.698;2023-02-15T04:38:09;65.73;;;40.17;;
12271;SDS011;6198;51.446;6.698;2023-02-15T04:40:35;68.23;;;40.80;;
12271;SDS011;6198;51.446;6.698;2023-02-15T04:43:03;65.03;;;39.33;;
12271;SDS011;6198;51.446;6.698;2023-02-15T04:45:29;68.50;;;41.13;;
12271;SDS011;6198;51.446;6.698;2023-02-15T04:47:55;67.77;;;41.03;;
12271;SDS011;6198;51.446;6.698;2023-02-15T04:50:21;66.97;;;40.33;;
12271;SDS011;6198;51.446;6.698;2023-02-15T04:52:47;67.17;;;40.53;;
12271;SDS011;6198;51.446;6.698;2023-02-15T04:55:13;64.07;;;40.13;;
12271;SDS011;6198;51.446;6.698;2023-02-15T04:57:39;65.13;;;39.33;;
12271;SDS011;6198;51.446;6.698;2023-02-15T05:00:05;66.53;;;40.47;;
12271;SDS011;6198;51.446;6.698;2023-02-15T05:02:31;66.70;;;41.17;;
12271;SDS011;6198;51.446;6.698;2023-02-15T05:04:57;62.10;;;38.73;;
12271;SDS011;6198;51.446;6.698;2023-02-15T05:07:23;63.57;;;39.93;;
12271;SDS011;6198;51.446;6.698;2023-02-15T05:09:49;69.47;;;41.47;;
12271;SDS011;6198;51.446;6.698;2023-02-15T05:12:15;65.17;;;40.37;;
12271;SDS011;6198;51.446;6.698;2023-02-15T05:14:41;70.93;;;41.90;;
12271;SDS011;6198;51.446;6.698;2023-02-15T05:17:07;65.63;;;40.60;;
12271;SDS011;6198;51.446;6.698;2023-02-15T05:19:32;63.73;;;39.70;;
12271;SDS011;6198;51.446;6.698;2023-02-15T05:21:58;69.40;;;40.67;;
12271;SDS011;6198;51.446;6.698;2023-02-15T05:24:24;64.20;;;39.10;;
12271;SDS011;6198;51.446;6.698;2023-02-15T05:27:10;67.23;;;41.30;;
12271;SDS011;6198;51.446;6.698;2023-02-15T05:29:55;66.10;;;40.77;;
12271;SDS011;6198;51.446;6.698;2023-02-15T05:32:21;65.63;;;40.63;;
12271;SDS011;6198;51.446;6.698;2023-02-15T05:34:47;66.60;;;39.87;;
12271;SDS011;6198;51.446;6.698;2023-02-15T05:37:13;72.33;;;40.73;;
12271;SDS011;6198;51.446;6.698;2023-02-15T05:39:39;67.47;;;40.03;;
12271;SDS011;6198;51.446;6.698;2023-02-15T05:42:05;67.93;;;41.40;;
12271;SDS011;6198;51.446;6.698;2023-02-15T05:44:31;63.07;;;39.20;;
12271;SDS011;6198;51.446;6.698;2023-02-15T05:46:57;60.43;;;38.83;;
12271;SDS011;6198;51.446;6.698;2023-02-15T05:49:23;63.73;;;38.77;;
12271;SDS011;6198;51.446;6.698;2023-02-15T05:51:49;64.60;;;39.33;;
12271;SDS011;6198;51.446;6.698;2023-02-15T05:54:15;62.17;;;39.97;;
12271;SDS011;6198;51.446;6.698;2023-02-15T05:56:41;60.00;;;37.00;;
12271;SDS011;6198;51.446;6.698;2023-02-15T05:59:07;58.77;;;36.37;;
12271;SDS011;6198;51.446;6.698;2023-02-15T06:01:33;55.83;;;36.00;;
12271;SDS011;6198;51.446;6.698;2023-02-15T06:03:59;54.67;;;35.53;;
12271;SDS011;6198;51.446;6.698;2023-02-15T06:06:25;56.77;;;36.60;;
12271;SDS011;6198;51.446;6.698;2023-02-15T06:08:51;57.77;;;36.43;;
12271;SDS011;6198;51.446;6.698;2023-02-15T06:11:17;55.13;;;36.20;;
12271;SDS011;6198;51.446;6.698;2023-02-15T06:13:43;54.97;;;35.27;;
12271;SDS011;6198;51.446;6.698;2023-02-15T06:16:09;51.67;;;34.10;;
12271;SDS011;6198;51.446;6.698;2023-02-15T06:18:35;52.50;;;34.30;;
12271;SDS011;6198;51.446;6.698;2023-02-15T06:21:01;51.77;;;33.80;;
12271;SDS011;6198;51.446;6.698;2023-02-15T06:23:27;50.57;;;33.73;;
12271;SDS011;6198;51.446;6.698;2023-02-15T06:25:53;49.23;;;31.30;;
12271;SDS011;6198;51.446;6.698;2023-02-15T06:28:19;52.33;;;33.80;;
12271;SDS011;6198;51.446;6.698;2023-02-15T06:30:45;51.10;;;32.43;;
12271;SDS011;6198;51.446;6.698;2023-02-15T06:33:12;49.93;;;33.50;;
12271;SDS011;6198;51.446;6.698;2023-02-15T06:35:37;52.57;;;32.80;;
12271;SDS011;6198;51.446;6.698;2023-02-15T06:38:03;48.27;;;32.77;;
12271;SDS011;6198;51.446;6.698;2023-02-15T06:40:29;48.50;;;31.73;;
12271;SDS011;6198;51.446;6.698;2023-02-15T06:42:55;47.33;;;32.10;;
12271;SDS011;6198;51.446;6.698;2023-02-15T06:45:21;53.53;;;35.47;;
12271;SDS011;6198;51.446;6.698;2023-02-15T06:47:47;50.30;;;31.87;;
12271;SDS011;6198;51.446;6.698;2023-02-15T06:50:13;49.53;;;30.87;;
12271;SDS011;6198;51.446;6.698;2023-02-15T06:52:39;51.10;;;32.30;;
12271;SDS011;6198;51.446;6.698;2023-02-15T06:55:05;49.80;;;31.40;;
12271;SDS011;6198;51.446;6.698;2023-02-15T06:57:31;46.57;;;31.27;;
12271;SDS011;6198;51.446;6.698;2023-02-15T06:59:58;47.30;;;31.60;;
12271;SDS011;6198;51.446;6.698;2023-02-15T07:02:24;51.60;;;31.50;;
12271;SDS011;6198;51.446;6.698;2023-02-15T07:04:50;46.20;;;30.87;;
12271;SDS011;6198;51.446;6.698;2023-02-15T07:07:16;51.30;;;31.17;;
12271;SDS011;6198;51.446;6.698;2023-02-15T07:09:42;49.87;;;31.87;;
12271;SDS011;6198;51.446;6.698;2023-02-15T07:12:08;51.17;;;32.77;;
12271;SDS011;6198;51.446;6.698;2023-02-15T07:14:53;45.83;;;30.77;;
12271;SDS011;6198;51.446;6.698;2023-02-15T07:17:19;47.07;;;30.57;;
12271;SDS011;6198;51.446;6.698;2023-02-15T07:19:45;44.87;;;30.33;;
12271;SDS011;6198;51.446;6.698;2023-02-15T07:22:11;47.60;;;30.67;;
12271;SDS011;6198;51.446;6.698;2023-02-15T07:24:37;49.97;;;31.27;;
12271;SDS011;6198;51.446;6.698;2023-02-15T07:27:03;44.53;;;29.47;;
12271;SDS011;6198;51.446;6.698;2023-02-15T07:29:29;45.33;;;29.80;;
12271;SDS011;6198;51.446;6.698;2023-02-15T07:31:55;46.03;;;29.20;;
12271;SDS011;6198;51.446;6.698;2023-02-15T07:34:21;44.87;;;29.97;;
12271;SDS011;6198;51.446;6.698;2023-02-15T07:36:50;45.57;;;29.90;;
12271;SDS011;6198;51.446;6.698;2023-02-15T07:39:16;45.27;;;28.57;;
12271;SDS011;6198;51.446;6.698;2023-02-15T07:41:42;41.13;;;27.53;;
12271;SDS011;6198;51.446;6.698;2023-02-15T07:44:11;41.43;;;27.93;;
12271;SDS011;6198;51.446;6.698;2023-02-15T07:46:38;41.60;;;28.17;;
12271;SDS011;6198;51.446;6.698;2023-02-15T07:49:04;38.87;;;26.57;;
12271;SDS011;6198;51.446;6.698;2023-02-15T07:51:30;38.17;;;25.70;;
12271;SDS011;6198;51.446;6.698;2023-02-15T07:53:56;36.87;;;25.63;;
12271;SDS011;6198;51.446;6.698;2023-02-15T07:56:22;38.73;;;26.40;;
12271;SDS011;6198;51.446;6.698;2023-02-15T07:58:48;39.80;;;25.63;;
12271;SDS011;6198;51.446;6.698;2023-02-15T08:01:17;35.83;;;24.77;;
12271;SDS011;6198;51.446;6.698;2023-02-15T08:03:44;37.07;;;24.43;;
12271;SDS011;6198;51.446;6.698;2023-02-15T08:06:10;37.97;;;25.40;;
12271;SDS011;6198;51.446;6.698;2023-02-15T08:08:37;38.27;;;24.20;;
12271;SDS011;6198;51.446;6.698;2023-02-15T08:11:05;33.23;;;24.00;;
12271;SDS011;6198;51.446;6.698;2023-02-15T08:13:50;34.03;;;23.50;;
12271;SDS011;6198;51.446;6.698;2023-02-15T08:16:27;32.00;;;21.97;;
12271;SDS011;6198;51.446;6.698;2023-02-15T08:18:53;31.77;;;22.57;;
12271;SDS011;6198;51.446;6.698;2023-02-15T08:21:20;31.07;;;21.50;;
12271;SDS011;6198;51.446;6.698;2023-02-15T08:23:46;34.63;;;22.90;;
12271;SDS011;6198;51.446;6.698;2023-02-15T08:26:12;31.40;;;22.83;;
12271;SDS011;6198;51.446;6.698;2023-02-15T08:28:39;28.10;;;21.13;;
12271;SDS011;6198;51.446;6.698;2023-02-15T08:31:06;30.23;;;22.07;;
12271;SDS011;6198;51.446;6.698;2023-02-15T08:33:32;32.27;;;21.07;;
12271;SDS011;6198;51.446;6.698;2023-02-15T08:36:02;38.27;;;23.07;;
12271;SDS011;6198;51.446;6.698;2023-02-15T08:38:28;28.97;;;22.27;;
12271;SDS011;6198;51.446;6.698;2023-02-15T08:40:54;29.83;;;20.77;;
12271;SDS011;6198;51.446;6.698;2023-02-15T08:43:20;30.63;;;20.93;;
12271;SDS011;6198;51.446;6.698;2023-02-15T08:45:47;31.50;;;21.77;;
12271;SDS011;6198;51.446;6.698;2023-02-15T08:48:13;29.50;;;21.53;;
12271;SDS011;6198;51.446;6.698;2023-02-15T08:50:39;29.67;;;21.00;;
12271;SDS011;6198;51.446;6.698;2023-02-15T08:53:05;30.33;;;21.03;;
12271;SDS011;6198;51.446;6.698;2023-02-15T08:55:31;31.57;;;20.87;;
12271;SDS011;6198;51.446;6.698;2023-02-15T08:57:57;27.53;;;20.60;;
12271;SDS011;6198;51.446;6.698;2023-02-15T09:00:23;29.67;;;21.63;;
12271;SDS011;6198;51.446;6.698;2023-02-15T09:02:50;26.83;;;21.03;;
12271;SDS011;6198;51.446;6.698;2023-02-15T09:05:17;30.83;;;21.80;;
12271;SDS011;6198;51.446;6.698;2023-02-15T09:07:46;30.73;;;21.13;;
12271;SDS011;6198;51.446;6.698;2023-02-15T09:10:15;30.13;;;21.43;;
12271;SDS011;6198;51.446;6.698;2023-02-15T09:12:41;30.10;;;20.87;;
12271;SDS011;6198;51.446;6.698;2023-02-15T09:15:07;30.03;;;20.83;;
12271;SDS011;6198;51.446;6.698;2023-02-15T09:17:33;28.63;;;21.23;;
12271;SDS011;6198;51.446;6.698;2023-02-15T09:19:59;29.77;;;21.37;;
12271;SDS011;6198;51.446;6.698;2023-02-15T09:22:25;29.83;;;21.17;;
12271;SDS011;6198;51.446;6.698;2023-02-15T09:24:51;28.83;;;20.03;;
12271;SDS011;6198;51.446;6.698;2023-02-15T09:27:17;31.23;;;21.40;;
12271;SDS011;6198;51.446;6.698;2023-02-15T09:29:43;38.50;;;24.87;;
12271;SDS011;6198;51.446;6.698;2023-02-15T09:32:09;37.57;;;25.07;;
12271;SDS011;6198;51.446;6.698;2023-02-15T09:34:39;39.13;;;25.47;;
12271;SDS011;6198;51.446;6.698;2023-02-15T09:37:05;34.47;;;24.47;;
12271;SDS011;6198;51.446;6.698;2023-02-15T09:39:31;38.60;;;23.70;;
12271;SDS011;6198;51.446;6.698;2023-02-15T09:45:06;39.27;;;25.53;;
12271;SDS011;6198;51.446;6.698;2023-02-15T09:58:05;40.70;;;24.97;;
12271;SDS011;6198;51.446;6.698;2023-02-15T10:00:37;35.67;;;24.53;;
12271;SDS011;6198;51.446;6.698;2023-02-15T10:08:32;36.87;;;21.67;;
12271;SDS011;6198;51.446;6.698;2023-02-15T10:11:14;30.83;;;20.20;;
12271;SDS011;6198;51.446;6.698;2023-02-15T10:14:15;32.27;;;21.20;;
12271;SDS011;6198;51.446;6.698;2023-02-15T10:17:08;31.83;;;19.77;;
12271;SDS011;6198;51.446;6.698;2023-02-15T10:22:07;33.83;;;20.93;;
12271;SDS011;6198;51.446;6.698;2023-02-15T10:25:25;34.90;;;19.60;;
12271;SDS011;6198;51.446;6.698;2023-02-15T10:27:22;35.30;;;21.70;;
12271;SDS011;6198;51.446;6.698;2023-02-15T10:29:52;33.27;;;20.93;;
12271;SDS011;6198;51.446;6.698;2023-02-15T10:32:25;31.77;;;21.97;;
12271;SDS011;6198;51.446;6.698;2023-02-15T10:35:01;37.47;;;21.33;;
12271;SDS011;6198;51.446;6.698;2023-02-15T10:37:48;34.03;;;21.90;;
12271;SDS011;6198;51.446;6.698;2023-02-15T10:42:57;33.83;;;22.40;;
12271;SDS011;6198;51.446;6.698;2023-02-15T10:45:49;35.93;;;22.93;;
12271;SDS011;6198;51.446;6.698;2023-02-15T10:53:34;29.13;;;20.87;;
12271;SDS011;6198;51.446;6.698;2023-02-15T10:56:02;31.20;;;20.60;;
12271;SDS011;6198;51.446;6.698;2023-02-15T11:01:04;31.63;;;20.87;;
12271;SDS011;6198;51.446;6.698;2023-02-15T11:06:28;28.63;;;19.97;;
12271;SDS011;6198;51.446;6.698;2023-02-15T11:09:00;27.73;;;20.60;;
12271;SDS011;6198;51.446;6.698;2023-02-15T11:11:36;26.17;;;19.77;;
12271;SDS011;6198;51.446;6.698;2023-02-15T11:16:52;28.97;;;19.70;;
12271;SDS011;6198;51.446;6.698;2023-02-15T11:19:43;27.50;;;19.83;;
12271;SDS011;6198;51.446;6.698;2023-02-15T11:22:06;28.23;;;20.60;;
12271;SDS011;6198;51.446;6.698;2023-02-15T11:24:44;31.57;;;22.13;;
12271;SDS011;6198;51.446;6.698;2023-02-15T11:37:58;28.53;;;19.57;;
12271;SDS011;6198;51.446;6.698;2023-02-15T11:40:31;26.67;;;18.93;;
12271;SDS011;6198;51.446;6.698;2023-02-15T11:43:00;24.83;;;19.20;;
12271;SDS011;6198;51.446;6.698;2023-02-15T11:45:30;26.47;;;19.17;;
12271;SDS011;6198;51.446;6.698;2023-02-15T11:47:57;29.93;;;20.13;;
12271;SDS011;6198;51.446;6.698;2023-02-15T11:50:24;29.50;;;20.70;;
12271;SDS011;6198;51.446;6.698;2023-02-15T11:52:51;30.63;;;20.63;;
12271;SDS011;6198;51.446;6.698;2023-02-15T11:55:20;31.40;;;22.37;;
12271;SDS011;6198;51.446;6.698;2023-02-15T11:57:50;36.77;;;22.80;;
12271;SDS011;6198;51.446;6.698;2023-02-15T12:00:31;40.07;;;24.47;;
12271;SDS011;6198;51.446;6.698;2023-02-15T12:03:01;39.97;;;24.73;;
12271;SDS011;6198;51.446;6.698;2023-02-15T12:05:27;40.47;;;27.47;;
12271;SDS011;6198;51.446;6.698;2023-02-15T12:08:37;41.03;;;26.30;;
12271;SDS011;6198;51.446;6.698;2023-02-15T12:13:57;44.10;;;27.43;;
12271;SDS011;6198;51.446;6.698;2023-02-15T12:16:23;46.23;;;27.47;;
12271;SDS011;6198;51.446;6.698;2023-02-15T12:18:50;46.97;;;26.20;;
12271;SDS011;6198;51.446;6.698;2023-02-15T12:21:25;38.33;;;24.43;;
12271;SDS011;6198;51.446;6.698;2023-02-15T12:23:53;34.73;;;22.67;;
12271;SDS011;6198;51.446;6.698;2023-02-15T12:26:34;29.67;;;20.17;;
12271;SDS011;6198;51.446;6.698;2023-02-15T12:29:00;35.00;;;20.40;;
12271;SDS011;6198;51.446;6.698;2023-02-15T12:31:31;30.97;;;20.10;;
12271;SDS011;6198;51.446;6.698;2023-02-15T12:33:59;30.20;;;20.43;;
12271;SDS011;6198;51.446;6.698;2023-02-15T12:36:32;40.57;;;24.33;;
12271;SDS011;6198;51.446;6.698;2023-02-15T12:39:03;37.47;;;20.67;;
12271;SDS011;6198;51.446;6.698;2023-02-15T12:41:29;36.63;;;21.47;;
12271;SDS011;6198;51.446;6.698;2023-02-15T12:44:03;31.10;;;19.97;;
12271;SDS011;6198;51.446;6.698;2023-02-15T12:46:29;34.73;;;21.50;;
12271;SDS011;6198;51.446;6.698;2023-02-15T12:49:13;39.50;;;22.73;;
12271;SDS011;6198;51.446;6.698;2023-02-15T12:51:47;30.37;;;20.03;;
12271;SDS011;6198;51.446;6.698;2023-02-15T12:54:30;43.03;;;23.30;;
12271;SDS011;6198;51.446;6.698;2023-02-15T12:56:57;31.43;;;19.87;;
12271;SDS011;6198;51.446;6.698;2023-02-15T12:59:23;37.63;;;22.00;;
12271;SDS011;6198;51.446;6.698;2023-02-15T13:01:50;37.47;;;20.47;;
12271;SDS011;6198;51.446;6.698;2023-02-15T13:04:25;34.43;;;20.63;;
12271;SDS011;6198;51.446;6.698;2023-02-15T13:06:53;35.47;;;21.03;;
12271;SDS011;6198;51.446;6.698;2023-02-15T13:09:23;35.13;;;21.67;;
12271;SDS011;6198;51.446;6.698;2023-02-15T13:11:51;41.23;;;23.40;;
12271;SDS011;6198;51.446;6.698;2023-02-15T13:14:18;39.97;;;24.40;;
12271;SDS011;6198;51.446;6.698;2023-02-15T13:16:45;35.80;;;21.87;;
12271;SDS011;6198;51.446;6.698;2023-02-15T13:19:12;32.23;;;20.57;;
12271;SDS011;6198;51.446;6.698;2023-02-15T13:21:41;33.00;;;20.33;;
12271;SDS011;6198;51.446;6.698;2023-02-15T13:26:44;35.03;;;21.13;;
12271;SDS011;6198;51.446;6.698;2023-02-15T13:29:15;32.33;;;20.40;;
12271;SDS011;6198;51.446;6.698;2023-02-15T13:31:42;36.37;;;22.37;;
12271;SDS011;6198;51.446;6.698;2023-02-15T13:34:09;33.13;;;21.87;;
12271;SDS011;6198;51.446;6.698;2023-02-15T13:36:44;34.70;;;22.40;;
12271;SDS011;6198;51.446;6.698;2023-02-15T13:42:01;30.40;;;18.27;;
12271;SDS011;6198;51.446;6.698;2023-02-15T13:44:40;34.23;;;20.30;;
12271;SDS011;6198;51.446;6.698;2023-02-15T13:50:00;32.07;;;18.77;;
12271;SDS011;6198;51.446;6.698;2023-02-15T13:52:38;27.10;;;17.23;;
12271;SDS011;6198;51.446;6.698;2023-02-15T14:10:31;28.67;;;16.90;;
12271;SDS011;6198;51.446;6.698;2023-02-15T14:31:02;20.83;;;15.57;;
12271;SDS011;6198;51.446;6.698;2023-02-15T14:33:31;24.87;;;14.93;;
12271;SDS011;6198;51.446;6.698;2023-02-15T14:35:58;25.27;;;16.60;;
12271;SDS011;6198;51.446;6.698;2023-02-15T14:38:35;22.20;;;15.07;;
12271;SDS011;6198;51.446;6.698;2023-02-15T14:41:04;21.77;;;15.87;;
12271;SDS011;6198;51.446;6.698;2023-02-15T14:43:49;29.30;;;15.13;;
12271;SDS011;6198;51.446;6.698;2023-02-15T14:46:20;24.00;;;15.10;;
12271;SDS011;6198;51.446;6.698;2023-02-15T14:48:49;28.13;;;15.73;;
12271;SDS011;6198;51.446;6.698;2023-02-15T14:54:00;26.63;;;15.30;;
12271;SDS011;6198;51.446;6.698;2023-02-15T14:56:26;22.87;;;14.90;;
12271;SDS011;6198;51.446;6.698;2023-02-15T15:03:51;24.73;;;15.57;;
12271;SDS011;6198;51.446;6.698;2023-02-15T15:08:51;23.13;;;15.40;;
12271;SDS011;6198;51.446;6.698;2023-02-15T15:12:02;23.97;;;15.73;;
12271;SDS011;6198;51.446;6.698;2023-02-15T15:14:10;21.87;;;15.40;;
12271;SDS011;6198;51.446;6.698;2023-02-15T15:19:04;24.73;;;15.40;;
12271;SDS011;6198;51.446;6.698;2023-02-15T15:29:41;21.37;;;14.23;;
12271;SDS011;6198;51.446;6.698;2023-02-15T15:32:08;22.37;;;15.73;;
12271;SDS011;6198;51.446;6.698;2023-02-15T15:34:50;21.43;;;14.10;;
12271;SDS011;6198;51.446;6.698;2023-02-15T15:50:14;20.33;;;15.67;;
12271;SDS011;6198;51.446;6.698;2023-02-15T15:52:43;25.20;;;16.90;;
12271;SDS011;6198;51.446;6.698;2023-02-15T15:55:17;33.00;;;21.87;;
12271;SDS011;6198;51.446;6.698;2023-02-15T15:57:44;25.30;;;18.63;;
12271;SDS011;6198;51.446;6.698;2023-02-15T16:02:52;27.70;;;17.20;;
12271;SDS011;6198;51.446;6.698;2023-02-15T16:05:20;23.30;;;16.77;;
12271;SDS011;6198;51.446;6.698;2023-02-15T16:07:46;22.57;;;17.10;;
12271;SDS011;6198;51.446;6.698;2023-02-15T16:10:45;22.73;;;15.93;;
12271;SDS011;6198;51.446;6.698;2023-02-15T16:13:05;28.67;;;17.43;;
12271;SDS011;6198;51.446;6.698;2023-02-15T16:15:36;27.07;;;17.93;;
12271;SDS011;6198;51.446;6.698;2023-02-15T16:18:02;22.67;;;16.70;;
12271;SDS011;6198;51.446;6.698;2023-02-15T16:20:32;26.47;;;17.57;;
12271;SDS011;6198;51.446;6.698;2023-02-15T16:23:05;30.17;;;17.23;;
12271;SDS011;6198;51.446;6.698;2023-02-15T16:28:17;26.53;;;17.73;;
12271;SDS011;6198;51.446;6.698;2023-02-15T16:30:43;24.27;;;17.87;;
12271;SDS011;6198;51.446;6.698;2023-02-15T16:33:13;27.73;;;19.07;;
12271;SDS011;6198;51.446;6.698;2023-02-15T16:35:55;28.03;;;18.57;;
12271;SDS011;6198;51.446;6.698;2023-02-15T16:38:28;25.37;;;18.73;;
12271;SDS011;6198;51.446;6.698;2023-02-15T16:41:00;22.93;;;17.80;;
12271;SDS011;6198;51.446;6.698;2023-02-15T16:43:26;30.73;;;18.93;;
12271;SDS011;6198;51.446;6.698;2023-02-15T16:46:04;28.13;;;21.33;;
12271;SDS011;6198;51.446;6.698;2023-02-15T16:48:31;92.10;;;63.67;;
12271;SDS011;6198;51.446;6.698;2023-02-15T16:50:58;51.57;;;33.67;;
12271;SDS011;6198;51.446;6.698;2023-02-15T16:53:28;33.83;;;23.70;;
12271;SDS011;6198;51.446;6.698;2023-02-15T16:55:58;34.10;;;23.10;;
12271;SDS011;6198;51.446;6.698;2023-02-15T16:58:29;33.03;;;21.77;;
12271;SDS011;6198;51.446;6.698;2023-02-15T17:00:59;32.83;;;22.03;;
12271;SDS011;6198;51.446;6.698;2023-02-15T17:03:26;56.93;;;36.33;;
12271;SDS011;6198;51.446;6.698;2023-02-15T17:05:57;69.53;;;43.93;;
12271;SDS011;6198;51.446;6.698;2023-02-15T17:08:24;64.03;;;36.10;;
12271;SDS011;6198;51.446;6.698;2023-02-15T17:13:26;43.97;;;31.53;;
12271;SDS011;6198;51.446;6.698;2023-02-15T17:18:25;48.07;;;33.67;;
12271;SDS011;6198;51.446;6.698;2023-02-15T17:20:53;51.83;;;34.87;;
12271;SDS011;6198;51.446;6.698;2023-02-15T17:25:46;40.00;;;27.67;;
12271;SDS011;6198;51.446;6.698;2023-02-15T17:28:16;36.87;;;23.77;;
12271;SDS011;6198;51.446;6.698;2023-02-15T17:30:42;29.53;;;20.33;;
12271;SDS011;6198;51.446;6.698;2023-02-15T17:33:21;32.60;;;20.63;;